createdAt,value
2022-07-28T00:00:17.457Z,100.00
2022-07-28T00:02:45.009Z,100.00
2022-07-28T00:05:12.639Z,100.00
2022-07-28T00:07:42.172Z,100.00
2022-07-28T00:10:10.085Z,100.00
2022-07-28T00:12:38.225Z,100.00
2022-07-28T00:15:08.938Z,100.00
2022-07-28T00:17:36.426Z,100.00
2022-07-28T00:20:07.931Z,100.00
2022-07-28T00:22:41.963Z,100.00
2022-07-28T00:25:10.488Z,100.00
2022-07-28T00:27:39.137Z,100.00
2022-07-28T00:30:09.099Z,100.00
2022-07-28T00:32:37.748Z,100.00
2022-07-28T00:35:08.160Z,100.00
2022-07-28T00:37:39.786Z,100.00
2022-07-28T00:40:09.285Z,100.00
2022-07-28T00:42:36.721Z,100.00
2022-07-28T00:45:04.986Z,100.00
2022-07-28T00:47:33.663Z,100.00
2022-07-28T00:50:03.174Z,100.00
2022-07-28T00:52:33.958Z,100.00
2022-07-28T00:55:05.574Z,100.00
2022-07-28T00:57:33.142Z,100.00
2022-07-28T01:00:01.306Z,100.00
2022-07-28T01:02:29.055Z,100.00
2022-07-28T01:04:56.680Z,100.00
2022-07-28T01:07:50.682Z,100.00
2022-07-28T01:10:40.940Z,100.00
2022-07-28T01:13:16.163Z,100.00
2022-07-28T01:16:03.250Z,100.00
2022-07-28T01:19:17.155Z,100.00
2022-07-28T01:21:47.530Z,100.00
2022-07-28T01:24:31.187Z,100.00
2022-07-28T01:27:04.812Z,100.00
2022-07-28T01:29:55.254Z,100.00
2022-07-28T01:32:28.823Z,100.00
2022-07-28T01:35:05.634Z,100.00
2022-07-28T01:37:40.537Z,100.00
2022-07-28T01:40:10.558Z,100.00
2022-07-28T01:42:49.234Z,100.00
2022-07-28T01:45:18.683Z,100.00
2022-07-28T01:47:49.038Z,100.00
2022-07-28T01:50:21.347Z,100.00
2022-07-28T01:52:51.348Z,100.00
2022-07-28T01:55:22.435Z,100.00
2022-07-28T01:57:53.396Z,100.00
2022-07-28T02:00:21.435Z,100.00
2022-07-28T02:02:51.220Z,100.00
2022-07-28T02:05:22.278Z,100.00
2022-07-28T02:07:51.754Z,100.00
2022-07-28T02:10:21.367Z,100.00
2022-07-28T02:12:53.160Z,100.00
2022-07-28T02:15:22.256Z,100.00
2022-07-28T02:17:53.353Z,100.00
2022-07-28T02:20:22.361Z,100.00
2022-07-28T02:22:53.425Z,100.00
2022-07-28T02:25:22.009Z,100.00
2022-07-28T02:28:17.096Z,100.00
2022-07-28T02:30:51.046Z,100.00
2022-07-28T02:33:35.646Z,100.00
2022-07-28T02:36:38.940Z,100.00
2022-07-28T02:39:17.085Z,100.00
2022-07-28T02:41:48.549Z,100.00
2022-07-28T02:44:21.923Z,100.00
2022-07-28T02:46:53.367Z,100.00
2022-07-28T02:49:30.366Z,100.00
2022-07-28T02:52:00.718Z,100.00
2022-07-28T02:54:31.106Z,100.00
2022-07-28T02:57:01.533Z,100.00
2022-07-28T02:59:30.272Z,100.00
2022-07-28T03:01:59.183Z,100.00
2022-07-28T03:04:46.208Z,100.00
2022-07-28T03:07:14.564Z,100.00
2022-07-28T03:09:45.883Z,100.00
2022-07-28T03:12:14.376Z,100.00
2022-07-28T03:14:42.184Z,100.00
2022-07-28T03:17:10.895Z,100.00
2022-07-28T03:19:38.775Z,100.00
2022-07-28T03:22:06.746Z,100.00
2022-07-28T03:24:42.280Z,100.00
2022-07-28T03:27:27.237Z,100.00
2022-07-28T03:30:15.529Z,100.00
2022-07-28T03:32:54.702Z,100.00
2022-07-28T03:35:22.652Z,100.00
2022-07-28T03:38:11.266Z,100.00
2022-07-28T03:40:46.067Z,100.00
2022-07-28T03:43:19.064Z,100.00
2022-07-28T03:45:48.008Z,100.00
2022-07-28T03:48:16.701Z,100.00
2022-07-28T03:50:44.397Z,100.00
2022-07-28T03:53:22.759Z,100.00
2022-07-28T03:55:51.386Z,100.00
2022-07-28T03:58:26.194Z,100.00
2022-07-28T04:00:58.207Z,100.00
2022-07-28T04:03:43.099Z,100.00
2022-07-28T04:06:15.725Z,100.00
2022-07-28T04:08:44.414Z,100.00
2022-07-28T04:11:11.967Z,100.00
2022-07-28T04:13:39.518Z,100.00
2022-07-28T04:16:08.211Z,100.00
2022-07-28T04:18:37.125Z,100.00
2022-07-28T04:21:05.226Z,100.00
2022-07-28T04:23:33.366Z,100.00
2022-07-28T04:26:01.389Z,100.00
2022-07-28T04:28:28.773Z,100.00
2022-07-28T04:30:56.320Z,100.00
2022-07-28T04:33:24.991Z,100.00
2022-07-28T04:35:53.508Z,100.00
2022-07-28T04:38:21.119Z,100.00
2022-07-28T04:40:48.875Z,100.00
2022-07-28T04:43:16.400Z,98.90
2022-07-28T04:45:53.922Z,97.77
2022-07-28T04:48:23.407Z,96.47
2022-07-28T04:50:53.150Z,96.89
2022-07-28T04:53:22.815Z,98.37
2022-07-28T04:55:53.474Z,98.85
2022-07-28T04:58:23.336Z,99.54
2022-07-28T05:00:51.854Z,99.91
2022-07-28T05:03:20.697Z,100.00
2022-07-28T05:05:54.175Z,100.00
2022-07-28T05:08:25.837Z,100.00
2022-07-28T05:10:57.963Z,100.00
2022-07-28T05:13:33.699Z,100.00
2022-07-28T05:16:03.702Z,100.00
2022-07-28T05:18:32.029Z,100.00
2022-07-28T05:20:59.571Z,100.00
2022-07-28T05:23:27.182Z,100.00
2022-07-28T05:25:54.651Z,99.39
2022-07-28T05:28:22.088Z,99.51
2022-07-28T05:30:49.715Z,98.93
2022-07-28T05:33:17.492Z,99.71
2022-07-28T05:35:52.651Z,98.48
2022-07-28T05:38:20.385Z,99.20
2022-07-28T05:40:48.919Z,98.12
2022-07-28T05:43:16.795Z,98.07
2022-07-28T05:45:45.364Z,98.63
2022-07-28T05:48:13.366Z,99.48
2022-07-28T05:50:41.262Z,98.80
2022-07-28T05:53:09.374Z,98.12
2022-07-28T05:55:36.923Z,94.79
2022-07-28T05:58:24.371Z,91.31
2022-07-28T06:00:52.110Z,91.23
2022-07-28T06:03:19.642Z,89.43
2022-07-28T06:06:13.786Z,84.16
2022-07-28T06:08:36.466Z,79.54
2022-07-28T06:11:10.026Z,77.82
2022-07-28T06:13:46.935Z,78.03
2022-07-28T06:16:16.621Z,76.98
2022-07-28T06:18:44.263Z,73.95
2022-07-28T06:21:11.709Z,72.81
2022-07-28T06:23:39.541Z,73.46
2022-07-28T06:26:07.216Z,73.04
2022-07-28T06:28:35.211Z,71.88
2022-07-28T06:31:02.781Z,72.07
2022-07-28T06:33:30.859Z,70.99
2022-07-28T06:35:58.501Z,69.62
2022-07-28T06:38:25.982Z,69.92
2022-07-28T06:40:53.503Z,68.71
2022-07-28T06:43:20.972Z,67.23
2022-07-28T06:45:48.419Z,64.14
2022-07-28T06:48:16.109Z,65.81
2022-07-28T06:50:43.802Z,65.60
2022-07-28T06:53:11.339Z,65.21
2022-07-28T06:55:39.341Z,65.10
2022-07-28T06:58:08.936Z,63.33
2022-07-28T07:00:36.624Z,63.32
2022-07-28T07:03:04.233Z,61.23
2022-07-28T07:05:32.538Z,60.76
2022-07-28T07:08:01.254Z,61.80
2022-07-28T07:10:29.208Z,61.65
2022-07-28T07:12:57.215Z,62.77
2022-07-28T07:15:29.080Z,60.07
2022-07-28T07:17:57.155Z,58.75
2022-07-28T07:20:24.661Z,58.91
2022-07-28T07:22:52.196Z,59.50
2022-07-28T07:25:20.533Z,60.05
2022-07-28T07:27:48.277Z,57.81
2022-07-28T07:30:17.348Z,60.00
2022-07-28T07:32:45.241Z,58.93
2022-07-28T07:35:13.533Z,57.82
2022-07-28T07:37:42.245Z,58.49
2022-07-28T07:40:10.224Z,56.49
2022-07-28T07:42:38.199Z,57.55
2022-07-28T07:45:06.191Z,56.25
2022-07-28T07:47:33.890Z,56.26
2022-07-28T07:50:04.144Z,56.43
2022-07-28T07:52:32.371Z,56.61
2022-07-28T07:55:00.621Z,56.44
2022-07-28T07:57:28.178Z,56.28
2022-07-28T07:59:55.882Z,54.76
2022-07-28T08:02:24.609Z,54.74
2022-07-28T08:04:52.069Z,53.51
2022-07-28T08:07:22.079Z,53.96
2022-07-28T08:09:50.145Z,55.47
2022-07-28T08:12:25.047Z,53.92
2022-07-28T08:14:56.261Z,51.22
2022-07-28T08:17:26.231Z,53.17
2022-07-28T08:19:54.784Z,53.07
2022-07-28T08:22:23.244Z,52.58
2022-07-28T08:24:51.005Z,51.69
2022-07-28T08:27:19.337Z,51.55
2022-07-28T08:29:47.032Z,51.78
2022-07-28T08:32:14.500Z,51.00
2022-07-28T08:34:42.203Z,50.11
2022-07-28T08:37:09.601Z,51.66
2022-07-28T08:39:37.323Z,50.08
2022-07-28T08:42:09.380Z,50.46
2022-07-28T08:44:47.397Z,48.82
2022-07-28T08:47:16.382Z,47.41
2022-07-28T08:49:44.432Z,48.18
2022-07-28T08:52:14.439Z,48.60
2022-07-28T08:54:47.311Z,48.78
2022-07-28T08:57:22.723Z,48.27
2022-07-28T08:59:50.484Z,47.69
2022-07-28T09:02:19.428Z,47.67
2022-07-28T09:04:48.350Z,47.53
2022-07-28T09:07:16.798Z,47.08
2022-07-28T09:09:47.851Z,45.74
2022-07-28T09:12:15.390Z,46.76
2022-07-28T09:14:43.251Z,46.33
2022-07-28T09:17:11.045Z,45.56
2022-07-28T09:19:42.106Z,44.55
2022-07-28T09:22:13.457Z,42.48
2022-07-28T09:24:44.954Z,43.61
2022-07-28T09:27:15.783Z,42.04
2022-07-28T09:29:49.404Z,43.36
2022-07-28T09:32:20.071Z,42.86
2022-07-28T09:34:51.618Z,42.47
2022-07-28T09:37:27.146Z,41.97
2022-07-28T09:40:00.399Z,42.59
2022-07-28T09:42:46.736Z,41.79
2022-07-28T09:45:23.341Z,42.12
2022-07-28T09:48:10.243Z,41.44
2022-07-28T09:50:39.682Z,40.80
2022-07-28T09:53:28.325Z,40.45
2022-07-28T09:56:01.472Z,39.24
2022-07-28T09:58:30.339Z,39.91
2022-07-28T10:01:13.299Z,40.26
2022-07-28T10:03:43.187Z,39.72
2022-07-28T10:06:26.189Z,38.13
2022-07-28T10:08:55.441Z,37.26
2022-07-28T10:11:26.935Z,37.20
2022-07-28T10:14:06.257Z,37.51
2022-07-28T10:16:43.536Z,36.60
2022-07-28T10:19:11.098Z,36.24
2022-07-28T10:21:44.445Z,36.44
2022-07-28T10:24:21.862Z,35.54
2022-07-28T10:26:50.903Z,36.02
2022-07-28T10:29:21.897Z,34.31
2022-07-28T10:31:49.323Z,33.54
2022-07-28T10:34:51.327Z,33.17
2022-07-28T10:37:27.854Z,32.73
2022-07-28T10:40:10.449Z,33.68
2022-07-28T10:42:41.747Z,33.23
2022-07-28T10:45:13.536Z,32.51
2022-07-28T10:47:41.647Z,33.66
2022-07-28T10:50:09.812Z,33.89
2022-07-28T10:52:49.909Z,33.50
2022-07-28T10:55:57.916Z,34.36
2022-07-28T10:58:31.429Z,33.97
2022-07-28T11:01:05.495Z,34.89
2022-07-28T11:03:47.106Z,34.07
2022-07-28T11:06:40.355Z,34.52
2022-07-28T11:09:16.780Z,33.90
2022-07-28T11:11:47.597Z,33.64
2022-07-28T11:14:26.095Z,33.40
2022-07-28T11:17:04.075Z,33.93
2022-07-28T11:20:06.825Z,32.81
2022-07-28T11:22:38.327Z,31.32
2022-07-28T11:25:18.889Z,32.94
2022-07-28T11:27:50.664Z,32.01
2022-07-28T11:30:36.182Z,30.74
2022-07-28T11:33:06.093Z,31.71
2022-07-28T11:35:55.260Z,32.17
2022-07-28T11:38:23.582Z,32.02
2022-07-28T11:40:54.636Z,31.21
2022-07-28T11:43:37.416Z,30.38
2022-07-28T11:46:07.651Z,30.13
2022-07-28T11:48:40.101Z,30.60
2022-07-28T11:51:12.205Z,30.95
2022-07-28T11:53:42.184Z,31.27
2022-07-28T11:56:13.746Z,30.80
2022-07-28T11:58:44.079Z,31.51
2022-07-28T12:01:18.319Z,30.51
2022-07-28T12:03:55.494Z,30.32
2022-07-28T12:06:37.257Z,29.81
2022-07-28T12:09:09.323Z,29.55
2022-07-28T12:11:41.557Z,30.16
2022-07-28T12:14:15.920Z,29.02
2022-07-28T12:16:46.013Z,29.79
2022-07-28T12:22:15.606Z,28.75
2022-07-28T12:24:44.722Z,28.50
2022-07-28T12:27:15.367Z,28.82
2022-07-28T12:29:55.625Z,28.81
2022-07-28T12:32:31.238Z,28.41
2022-07-28T12:34:59.492Z,28.06
2022-07-28T12:37:28.458Z,27.85
2022-07-28T12:39:55.988Z,30.33
2022-07-28T12:42:25.155Z,28.62
2022-07-28T12:45:01.498Z,29.35
2022-07-28T12:47:28.980Z,28.60
2022-07-28T12:50:19.256Z,29.30
2022-07-28T12:53:05.363Z,29.52
2022-07-28T12:55:33.573Z,28.97
2022-07-28T12:58:01.456Z,28.93
2022-07-28T13:00:32.072Z,29.29
2022-07-28T13:03:01.426Z,28.34
2022-07-28T13:05:56.629Z,28.84
2022-07-28T13:08:27.288Z,29.17
2022-07-28T13:10:58.761Z,27.22
2022-07-28T13:13:27.378Z,27.89
2022-07-28T13:16:21.182Z,27.67
2022-07-28T13:19:02.372Z,26.93
2022-07-28T13:21:56.656Z,28.07
2022-07-28T13:24:28.357Z,26.95
2022-07-28T13:26:57.373Z,27.02
2022-07-28T13:29:25.597Z,26.87
2022-07-28T13:31:55.026Z,26.38
2022-07-28T13:34:22.725Z,26.18
2022-07-28T13:36:50.405Z,26.75
2022-07-28T13:39:18.247Z,26.93
2022-07-28T13:41:57.173Z,27.01
2022-07-28T13:44:29.995Z,26.32
2022-07-28T13:46:59.588Z,27.32
2022-07-28T13:49:29.129Z,26.74
2022-07-28T13:51:57.395Z,27.43
2022-07-28T13:54:25.881Z,28.10
2022-07-28T13:57:15.088Z,28.21
2022-07-28T13:59:46.412Z,28.20
2022-07-28T14:02:15.705Z,28.20
2022-07-28T14:04:45.934Z,27.61
2022-07-28T14:07:20.747Z,27.69
2022-07-28T14:09:50.912Z,28.14
2022-07-28T14:12:18.877Z,28.49
2022-07-28T14:14:48.728Z,28.72
2022-07-28T14:20:12.222Z,29.71
2022-07-28T14:22:46.595Z,30.15
2022-07-28T14:25:20.561Z,30.81
2022-07-28T14:27:50.578Z,31.61
2022-07-28T14:30:19.439Z,31.65
2022-07-28T14:32:47.097Z,32.40
2022-07-28T14:35:15.313Z,32.89
2022-07-28T14:40:33.699Z,34.12
2022-07-28T14:43:07.048Z,34.86
2022-07-28T14:46:12.351Z,34.75
2022-07-28T14:48:23.536Z,35.21
2022-07-28T14:50:52.578Z,35.94
2022-07-28T14:53:22.314Z,35.73
2022-07-28T14:55:49.747Z,37.01
2022-07-28T14:58:20.484Z,37.44
2022-07-28T15:00:48.705Z,37.88
2022-07-28T15:03:17.165Z,38.45
2022-07-28T15:05:47.112Z,38.39
2022-07-28T15:08:14.695Z,38.71
2022-07-28T15:10:45.727Z,38.45
2022-07-28T15:13:16.655Z,39.25
2022-07-28T15:15:44.889Z,39.49
2022-07-28T15:18:12.717Z,40.08
2022-07-28T15:20:40.813Z,39.93
2022-07-28T15:23:10.400Z,40.30
2022-07-28T15:25:38.378Z,40.05
2022-07-28T15:28:05.995Z,40.52
2022-07-28T15:30:33.538Z,40.71
2022-07-28T15:33:01.903Z,40.92
2022-07-28T15:35:58.113Z,41.57
2022-07-28T15:38:18.351Z,41.94
2022-07-28T15:40:48.189Z,42.50
2022-07-28T15:43:18.359Z,42.48
2022-07-28T15:45:54.715Z,42.92
2022-07-28T15:48:23.414Z,42.96
2022-07-28T15:50:51.467Z,43.33
2022-07-28T15:53:19.747Z,43.47
2022-07-28T15:55:50.982Z,43.86
2022-07-28T15:58:20.180Z,43.58
2022-07-28T16:00:51.298Z,43.67
2022-07-28T16:03:19.082Z,44.01
2022-07-28T16:05:49.690Z,44.25
2022-07-28T16:08:22.732Z,45.22
2022-07-28T16:10:52.902Z,45.31
2022-07-28T16:13:36.130Z,45.96
2022-07-28T16:16:10.774Z,47.06
2022-07-28T16:18:41.966Z,48.59
2022-07-28T16:21:10.465Z,48.96
2022-07-28T16:23:38.590Z,49.17
2022-07-28T16:26:09.427Z,49.90
2022-07-28T16:28:37.289Z,50.41
2022-07-28T16:31:04.949Z,50.66
2022-07-28T16:33:34.747Z,51.35
2022-07-28T16:36:02.821Z,52.24
2022-07-28T16:38:30.816Z,52.85
2022-07-28T16:40:58.336Z,52.58
2022-07-28T16:43:25.806Z,52.96
2022-07-28T16:45:53.343Z,53.62
2022-07-28T16:48:21.017Z,54.45
2022-07-28T16:50:48.653Z,53.92
2022-07-28T16:53:16.517Z,54.53
2022-07-28T16:55:44.640Z,54.08
2022-07-28T16:58:12.223Z,54.76
2022-07-28T17:00:39.776Z,55.45
2022-07-28T17:03:11.231Z,56.29
2022-07-28T17:05:38.902Z,56.01
2022-07-28T17:08:07.149Z,56.80
2022-07-28T17:10:34.785Z,57.36
2022-07-28T17:13:03.186Z,59.19
2022-07-28T17:15:31.708Z,59.81
2022-07-28T17:17:59.849Z,59.86
2022-07-28T17:20:28.817Z,59.88
2022-07-28T17:22:57.994Z,59.57
2022-07-28T17:25:52.302Z,60.10
2022-07-28T17:28:14.506Z,59.39
2022-07-28T17:30:42.905Z,59.50
2022-07-28T17:33:10.429Z,59.86
2022-07-28T17:35:40.538Z,60.25
2022-07-28T17:38:09.383Z,60.46
2022-07-28T17:40:39.715Z,60.84
2022-07-28T17:43:07.212Z,61.55
2022-07-28T17:45:36.627Z,62.08
2022-07-28T17:48:05.030Z,62.85
2022-07-28T17:50:32.603Z,61.86
2022-07-28T17:53:01.927Z,61.60
2022-07-28T17:55:57.572Z,61.84
2022-07-28T17:58:32.276Z,62.25
2022-07-28T18:01:09.674Z,62.31
2022-07-28T18:03:58.726Z,62.43
2022-07-28T18:06:36.487Z,62.31
2022-07-28T18:09:07.995Z,61.90
2022-07-28T18:11:57.245Z,62.06
2022-07-28T18:14:29.963Z,61.92
2022-07-28T18:16:58.641Z,61.70
2022-07-28T18:19:30.010Z,61.47
2022-07-28T18:21:58.374Z,61.82
2022-07-28T18:24:26.489Z,61.85
2022-07-28T18:26:54.222Z,61.90
2022-07-28T18:29:22.427Z,63.24
2022-07-28T18:31:52.362Z,63.55
2022-07-28T18:34:20.813Z,64.45
2022-07-28T18:36:52.328Z,64.75
2022-07-28T18:39:19.798Z,65.87
2022-07-28T18:41:48.158Z,66.41
2022-07-28T18:44:17.880Z,66.84
2022-07-28T18:46:46.577Z,67.46
2022-07-28T18:49:15.068Z,67.04
2022-07-28T18:51:45.169Z,68.08
2022-07-28T18:54:18.613Z,67.32
2022-07-28T18:56:47.759Z,69.12
2022-07-28T19:02:04.367Z,69.56
2022-07-28T19:04:33.444Z,69.70
2022-07-28T19:07:00.886Z,69.42
2022-07-28T19:09:28.965Z,69.52
2022-07-28T19:12:05.002Z,69.32
2022-07-28T19:14:33.899Z,68.68
2022-07-28T19:17:02.049Z,69.66
2022-07-28T19:19:31.689Z,69.73
2022-07-28T19:22:00.323Z,69.51
2022-07-28T19:24:28.660Z,69.47
2022-07-28T19:26:56.156Z,69.65
2022-07-28T19:29:27.479Z,69.78
2022-07-28T19:31:55.116Z,70.22
2022-07-28T19:34:22.847Z,70.22
2022-07-28T19:36:51.607Z,70.37
2022-07-28T19:39:19.935Z,70.21
2022-07-28T19:41:48.197Z,69.60
2022-07-28T19:44:16.121Z,70.68
2022-07-28T19:46:44.877Z,70.70
2022-07-28T19:49:17.009Z,71.35
2022-07-28T19:51:45.069Z,71.19
2022-07-28T19:54:15.416Z,71.73
2022-07-28T19:56:43.365Z,71.91
2022-07-28T19:59:10.767Z,72.22
2022-07-28T20:01:45.938Z,72.91
2022-07-28T20:04:16.203Z,72.99
2022-07-28T20:06:44.174Z,74.21
2022-07-28T20:09:17.792Z,73.16
2022-07-28T20:11:50.528Z,73.18
2022-07-28T20:14:20.611Z,73.30
2022-07-28T20:16:48.052Z,73.63
2022-07-28T20:19:16.927Z,73.94
2022-07-28T20:21:44.480Z,74.70
2022-07-28T20:24:12.001Z,75.11
2022-07-28T20:26:39.682Z,75.67
2022-07-28T20:29:07.138Z,75.49
2022-07-28T20:31:36.947Z,75.43
2022-07-28T20:34:07.911Z,75.92
2022-07-28T20:36:35.753Z,76.29
2022-07-28T20:39:21.076Z,75.93
2022-07-28T20:41:52.034Z,76.06
2022-07-28T20:44:29.190Z,75.68
2022-07-28T20:47:02.495Z,75.83
2022-07-28T20:49:30.268Z,76.56
2022-07-28T20:51:59.668Z,76.62
2022-07-28T20:54:27.404Z,76.73
2022-07-28T20:56:55.649Z,76.75
2022-07-28T20:59:27.631Z,77.30
2022-07-28T21:01:56.881Z,77.48
2022-07-28T21:04:26.517Z,78.03
2022-07-28T21:07:01.734Z,78.36
2022-07-28T21:09:29.977Z,78.82
2022-07-28T21:12:03.058Z,78.92
2022-07-28T21:14:32.758Z,78.59
2022-07-28T21:17:00.353Z,77.93
2022-07-28T21:19:27.895Z,78.11
2022-07-28T21:21:55.704Z,78.51
2022-07-28T21:24:23.985Z,78.46
2022-07-28T21:26:52.077Z,78.22
2022-07-28T21:32:03.703Z,78.18
2022-07-28T21:34:34.548Z,78.29
2022-07-28T21:37:04.914Z,78.03
2022-07-28T21:39:35.930Z,78.19
2022-07-28T21:42:07.703Z,78.17
2022-07-28T21:44:37.866Z,78.73
2022-07-28T21:47:06.490Z,79.08
2022-07-28T21:49:34.244Z,79.03
2022-07-28T21:52:03.192Z,79.10
2022-07-28T21:54:30.677Z,79.58
2022-07-28T21:56:58.191Z,79.85
2022-07-28T21:59:26.571Z,79.78
2022-07-28T22:01:54.374Z,79.58
2022-07-28T22:04:22.404Z,80.19
2022-07-28T22:06:50.475Z,81.04
2022-07-28T22:09:18.393Z,81.46
2022-07-28T22:11:48.445Z,81.31
2022-07-28T22:14:16.252Z,81.54
2022-07-28T22:16:45.030Z,81.68
2022-07-28T22:19:12.862Z,82.45
2022-07-28T22:21:40.325Z,82.47
2022-07-28T22:24:08.339Z,82.90
2022-07-28T22:26:36.833Z,83.41
2022-07-28T22:29:05.230Z,82.97
2022-07-28T22:31:32.746Z,83.51
2022-07-28T22:34:00.714Z,83.78
2022-07-28T22:36:28.258Z,83.46
2022-07-28T22:38:56.926Z,83.13
2022-07-28T22:41:24.813Z,83.37
2022-07-28T22:43:54.766Z,84.08
2022-07-28T22:46:22.946Z,83.11
2022-07-28T22:48:50.564Z,84.09
2022-07-28T22:51:18.250Z,85.13
2022-07-28T22:53:45.755Z,84.54
2022-07-28T22:56:14.078Z,84.55
2022-07-28T22:58:41.571Z,85.63
2022-07-28T23:01:09.736Z,85.35
2022-07-28T23:03:38.348Z,86.56
2022-07-28T23:06:06.848Z,86.33
2022-07-28T23:08:34.372Z,86.66
2022-07-28T23:11:03.009Z,86.18
2022-07-28T23:13:30.743Z,87.20
2022-07-28T23:16:02.252Z,87.14
2022-07-28T23:18:30.499Z,86.86
2022-07-28T23:20:59.171Z,87.27
2022-07-28T23:23:27.039Z,88.56
2022-07-28T23:25:54.549Z,88.48
2022-07-28T23:28:21.906Z,88.19
2022-07-28T23:30:52.071Z,86.75
2022-07-28T23:33:56.158Z,87.44
2022-07-28T23:36:07.257Z,88.51
2022-07-28T23:38:42.608Z,89.40
2022-07-28T23:41:15.204Z,87.86
2022-07-28T23:43:43.111Z,88.64
2022-07-28T23:46:10.827Z,89.83
2022-07-28T23:48:39.036Z,89.04
2022-07-28T23:51:06.535Z,90.03
2022-07-28T23:53:41.208Z,92.39
2022-07-28T23:56:09.132Z,91.09
2022-07-28T23:58:36.791Z,91.89
